Terminal Aerodrome Forecast
Issued by NWS

Home | Current Version | Previous Version | Text Only | Print | Product List | Glossary On
Versions: 1 2 3 4 5 6 7 8 9 10 11 12 13 14
000
FTUS43 KDTX 190520
TAFDET
TAF
KDET 190520Z 1906/2006 04011KT P6SM BKN250
     FM191400 10014G20KT P6SM BKN070 OVC150
     FM192100 09012KT 6SM -RA BKN040 OVC060
     FM200100 13014KT 2SM RA BKN012 OVC022=

USA.gov is the U.S. government's official web portal to all federal, state and local government web resources and services.